Time;durP1;ratioP1;P1;durP2;ratioP2;P2;SDS_P1;SDS_P2;PMS_P1;PMS_P2;Temp;Humidity;BMP_temperature;BMP_pressure;BME280_temperature;BME280_humidity;BME280_pressure;Samples;Min_cycle;Max_cycle;Signal;HPM_P1;HPM_P2
2022/01/04 00:01:16;;;;;;;82.73;6.00;;;;;;;8.16;100.00;97085.13;5079267;28;20622;-64
2022/01/04 00:03:42;;;;;;;81.43;7.20;;;;;;;8.38;100.00;97093.66;5077425;28;20606;-65
2022/01/04 00:06:09;;;;;;;34.77;4.20;;;;;;;8.36;100.00;97087.78;5077609;28;21423;-65
2022/01/04 00:08:38;;;;;;;61.63;4.90;;;;;;;8.52;100.00;97085.91;5080933;28;20605;-64
2022/01/04 00:11:14;;;;;;;103.83;7.70;;;;;;;8.31;100.00;97077.19;5080690;28;20601;-64
2022/01/04 00:13:41;;;;;;;102.57;8.43;;;;;;;8.17;100.00;97077.97;5070321;28;20661;-64
2022/01/04 00:16:10;;;;;;;54.53;4.83;;;;;;;8.23;100.00;97080.34;5077237;28;20625;-66
2022/01/04 00:18:37;;;;;;;95.47;7.33;;;;;;;8.16;100.00;97074.50;5080794;28;20697;-65
2022/01/04 00:21:04;;;;;;;54.93;5.30;;;;;;;8.02;100.00;97076.09;5080653;28;20597;-64
2022/01/04 00:23:31;;;;;;;71.87;6.47;;;;;;;8.21;100.00;97066.50;5064891;28;20626;-64
2022/01/04 00:25:59;;;;;;;57.67;5.40;;;;;;;8.23;100.00;97053.75;5077231;28;20614;-64
2022/01/04 00:28:27;;;;;;;52.83;5.10;;;;;;;8.02;100.00;97058.28;5080115;28;20678;-65
2022/01/04 00:30:53;;;;;;;20.83;3.20;;;;;;;8.17;100.00;97046.81;5080767;28;20613;-65
2022/01/04 00:33:20;;;;;;;79.67;6.97;;;;;;;7.96;100.00;97047.91;5078280;28;20655;-64
2022/01/04 00:35:47;;;;;;;104.60;7.50;;;;;;;7.93;100.00;97037.81;5078948;28;20598;-65
2022/01/04 00:38:14;;;;;;;120.67;8.27;;;;;;;7.87;100.00;97034.38;5081872;28;20605;-65
2022/01/04 00:40:41;;;;;;;85.57;6.30;;;;;;;7.94;100.00;97028.78;5084492;28;20627;-64
2022/01/04 00:43:09;;;;;;;100.97;7.63;;;;;;;7.89;100.00;97026.91;5084148;28;20601;-64
2022/01/04 00:45:37;;;;;;;57.13;6.10;;;;;;;7.97;100.00;97029.06;5080702;28;20630;-64
2022/01/04 00:50:50;;;;;;;61.40;5.50;;;;;;;8.09;100.00;97015.47;5075563;28;20610;-64
2022/01/04 00:53:16;;;;;;;68.23;5.83;;;;;;;7.99;100.00;96999.53;5083942;28;20676;-64
2022/01/04 00:55:43;;;;;;;72.67;5.67;;;;;;;8.01;100.00;97008.06;5080800;28;20633;-65
2022/01/04 00:58:11;;;;;;;50.20;4.83;;;;;;;7.98;100.00;97004.03;5081176;28;20582;-64
2022/01/04 01:00:40;;;;;;;50.30;5.10;;;;;;;7.86;100.00;97010.72;5084260;28;20606;-64
2022/01/04 01:03:08;;;;;;;31.80;3.93;;;;;;;7.78;100.00;96984.66;5083641;28;20605;-64
2022/01/04 01:05:35;;;;;;;82.47;6.63;;;;;;;7.79;100.00;96988.94;5080592;28;21418;-64
2022/01/04 01:08:02;;;;;;;69.47;5.90;;;;;;;7.75;100.00;96990.50;5080561;28;20628;-65
2022/01/04 01:13:14;;;;;;;73.13;7.50;;;;;;;7.77;100.00;96975.88;5082514;28;20637;-63
2022/01/04 01:15:44;;;;;;;74.87;7.23;;;;;;;7.65;100.00;96980.69;5080474;28;20610;-65
2022/01/04 01:18:12;;;;;;;29.57;3.77;;;;;;;7.55;100.00;96968.19;5081012;28;20604;-64
2022/01/04 01:20:38;;;;;;;37.03;4.40;;;;;;;7.48;100.00;96967.69;5083911;28;20628;-65
2022/01/04 01:23:05;;;;;;;38.90;5.20;;;;;;;7.59;100.00;96968.47;5079353;28;20606;-64
2022/01/04 01:25:32;;;;;;;54.10;5.70;;;;;;;7.56;100.00;96961.03;5072210;28;20610;-64
2022/01/04 01:27:59;;;;;;;56.30;6.37;;;;;;;7.55;100.00;96957.56;5080184;28;20607;-64
2022/01/04 01:30:28;;;;;;;59.90;5.83;;;;;;;7.58;100.00;96949.06;5082989;28;20602;-63
2022/01/04 01:32:55;;;;;;;29.13;4.67;;;;;;;7.46;100.00;96953.06;5083726;28;20620;-64
2022/01/04 01:35:22;;;;;;;73.07;6.90;;;;;;;7.50;100.00;96948.81;5081311;28;20632;-64
2022/01/04 01:37:48;;;;;;;60.00;6.10;;;;;;;7.41;100.00;96942.44;5080170;28;20595;-64
2022/01/04 01:40:15;;;;;;;52.73;6.20;;;;;;;7.43;100.00;96937.66;5081188;28;20590;-64
2022/01/04 01:42:42;;;;;;;55.33;7.03;;;;;;;7.50;100.00;96928.38;5083518;28;20601;-64
2022/01/04 01:45:11;;;;;;;53.57;6.73;;;;;;;7.47;100.00;96926.25;5082639;28;20663;-63
2022/01/04 01:47:41;;;;;;;40.80;5.97;;;;;;;7.43;100.00;96921.72;5078950;28;20670;-64
2022/01/04 01:50:09;;;;;;;74.87;7.30;;;;;;;7.37;100.00;96912.97;5080003;28;20660;-63
2022/01/04 01:52:36;;;;;;;95.33;7.70;;;;;;;7.42;100.00;96915.63;5082911;28;20662;-63
2022/01/04 01:55:03;;;;;;;50.03;4.73;;;;;;;7.33;100.00;96906.59;5079163;28;20660;-64
2022/01/04 01:57:29;;;;;;;74.77;6.60;;;;;;;7.40;100.00;96903.66;5079747;28;20602;-63
2022/01/04 01:59:56;;;;;;;48.00;4.87;;;;;;;7.29;100.00;96899.44;5079634;28;21409;-63
2022/01/04 02:02:23;;;;;;;57.97;6.40;;;;;;;7.38;100.00;96895.16;5082140;28;20652;-64
2022/01/04 02:04:51;;;;;;;51.33;5.67;;;;;;;7.30;100.00;96893.84;5083254;28;20597;-65
2022/01/04 02:07:20;;;;;;;46.90;5.80;;;;;;;7.28;100.00;96882.69;5081256;28;20609;-64
2022/01/04 02:09:54;;;;;;;83.13;7.07;;;;;;;7.41;100.00;96879.50;5079555;28;20602;-64
2022/01/04 02:12:21;;;;;;;73.83;5.87;;;;;;;7.36;100.00;96876.84;5081594;28;20610;-63
2022/01/04 02:14:50;;;;;;;53.77;5.97;;;;;;;7.45;100.00;96871.78;5082854;28;20674;-64
2022/01/04 02:17:17;;;;;;;46.63;4.60;;;;;;;7.39;100.00;96854.28;5081213;28;20684;-64
2022/01/04 02:19:44;;;;;;;73.50;5.90;;;;;;;7.42;100.00;96856.41;5079252;28;20624;-63
2022/01/04 02:22:11;;;;;;;16.13;4.47;;;;;;;7.40;100.00;96848.69;5079778;28;20598;-65
2022/01/04 02:24:38;;;;;;;100.80;7.27;;;;;;;7.42;100.00;96846.56;5078236;28;20658;-63
2022/01/04 02:27:05;;;;;;;40.03;4.90;;;;;;;7.41;100.00;96852.94;5082399;28;20608;-65
2022/01/04 02:29:32;;;;;;;50.83;5.70;;;;;;;7.30;100.00;96843.41;5070895;28;20606;-64
2022/01/04 02:31:59;;;;;;;40.17;5.13;;;;;;;7.29;100.00;96836.50;5079015;28;21173;-63
2022/01/04 02:34:25;;;;;;;41.80;5.10;;;;;;;7.37;100.00;96833.28;5080419;28;21323;-64
2022/01/04 02:36:53;;;;;;;47.97;4.73;;;;;;;7.37;100.00;96830.63;5082410;28;20632;-64
2022/01/04 02:39:20;;;;;;;55.53;5.67;;;;;;;7.35;100.00;96819.47;5080233;28;20601;-65
2022/01/04 02:42:02;;;;;;;88.80;8.40;;;;;;;7.39;100.00;96825.84;5078768;28;20602;-64
2022/01/04 02:44:28;;;;;;;108.90;7.50;;;;;;;7.36;100.00;96818.44;5081583;28;20625;-64
2022/01/04 02:46:55;;;;;;;108.13;7.83;;;;;;;7.31;100.00;96809.66;5082203;28;20669;-64
2022/01/04 02:49:22;;;;;;;70.23;5.70;;;;;;;7.39;100.00;96801.97;5079780;28;20636;-64
2022/01/04 02:51:48;;;;;;;80.97;6.80;;;;;;;7.37;100.00;96806.72;5078679;28;20606;-64
2022/01/04 02:54:16;;;;;;;38.20;4.53;;;;;;;7.37;100.00;96800.59;5074923;28;20633;-64
2022/01/04 02:56:43;;;;;;;73.37;5.53;;;;;;;7.40;100.00;96790.25;5082128;28;20613;-64
2022/01/04 02:59:09;;;;;;;83.27;6.70;;;;;;;7.48;100.00;96779.09;5081227;28;20598;-64
2022/01/04 03:01:36;;;;;;;75.10;6.37;;;;;;;7.50;100.00;96784.13;5078353;28;20603;-64
2022/01/04 03:04:03;;;;;;;81.20;5.97;;;;;;;7.59;100.00;96783.28;5078335;28;21380;-64
2022/01/04 03:06:30;;;;;;;71.00;5.80;;;;;;;7.60;100.00;96779.56;5081712;28;20598;-64
2022/01/04 03:08:57;;;;;;;71.67;5.30;;;;;;;7.59;100.00;96772.66;5081811;28;20618;-64
2022/01/04 03:11:25;;;;;;;82.37;5.80;;;;;;;7.68;100.00;96772.91;5079124;28;20601;-64
2022/01/04 03:13:52;;;;;;;69.33;5.37;;;;;;;7.66;100.00;96772.38;5078243;28;20657;-64
2022/01/04 03:16:18;;;;;;;73.17;5.90;;;;;;;7.55;100.00;96758.31;5079611;28;20662;-64
2022/01/04 03:19:02;;;;;;;49.67;4.23;;;;;;;7.52;100.00;96750.91;5081551;28;20612;-64
2022/01/04 03:21:30;;;;;;;58.93;4.60;;;;;;;7.67;100.00;96749.25;5078224;28;20614;-64
2022/01/04 03:23:57;;;;;;;29.93;3.73;;;;;;;7.52;100.00;96737.63;5072308;28;21212;-63
2022/01/04 03:26:25;;;;;;;26.70;3.30;;;;;;;7.52;100.00;96739.50;5080427;28;20594;-63
2022/01/04 03:28:52;;;;;;;87.67;6.10;;;;;;;7.79;100.00;96728.47;5081593;28;20605;-65
2022/01/04 03:31:18;;;;;;;63.47;5.07;;;;;;;7.78;100.00;96729.53;5079541;28;20585;-63
2022/01/04 03:33:45;;;;;;;83.67;6.40;;;;;;;7.66;100.00;96719.25;5077647;28;20591;-64
2022/01/04 03:36:12;;;;;;;70.17;5.43;;;;;;;7.70;100.00;96719.50;5078390;28;20587;-64
2022/01/04 03:38:38;;;;;;;49.97;4.13;;;;;;;7.56;100.00;96709.44;5081121;28;20589;-65
2022/01/04 03:41:07;;;;;;;52.03;5.00;;;;;;;7.55;100.00;96712.41;5081272;28;20597;-64
2022/01/04 03:43:37;;;;;;;67.97;5.13;;;;;;;7.54;100.00;96695.66;5069906;28;20622;-64
2022/01/04 03:46:05;;;;;;;53.57;5.33;;;;;;;7.55;100.00;96691.91;5076197;28;20634;-64
2022/01/04 03:48:31;;;;;;;89.30;6.47;;;;;;;7.53;100.00;96688.75;5069336;28;20621;-66
2022/01/04 03:50:58;;;;;;;59.07;5.07;;;;;;;7.44;100.00;96686.91;5077470;28;20621;-64
2022/01/04 03:53:25;;;;;;;63.67;5.90;;;;;;;7.49;100.00;96682.38;5080796;28;20586;-64
2022/01/04 03:55:51;;;;;;;68.07;5.07;;;;;;;7.53;100.00;96674.66;5077430;28;20677;-64
2022/01/04 03:58:18;;;;;;;39.00;4.50;;;;;;;7.68;100.00;96673.78;5079065;28;20603;-64
2022/01/04 04:00:46;;;;;;;100.17;7.73;;;;;;;7.53;100.00;96661.38;5080914;28;20605;-64
2022/01/04 04:03:12;;;;;;;68.43;5.83;;;;;;;7.51;100.00;96656.34;5079876;28;20632;-64
2022/01/04 04:05:39;;;;;;;71.17;5.87;;;;;;;7.53;100.00;96637.47;5077456;28;20652;-63
2022/01/04 04:08:05;;;;;;;77.37;5.87;;;;;;;7.51;100.00;96631.66;5077200;28;20664;-64
2022/01/04 04:10:32;;;;;;;40.50;4.57;;;;;;;7.50;100.00;96636.16;5068797;28;21146;-64
2022/01/04 04:12:59;;;;;;;35.33;3.70;;;;;;;7.51;100.00;96639.63;5077304;28;21130;-64
2022/01/04 04:15:25;;;;;;;46.63;4.60;;;;;;;7.52;100.00;96630.59;5079963;28;20650;-64
2022/01/04 04:17:53;;;;;;;41.13;4.30;;;;;;;7.53;100.00;96625.00;5080789;28;20617;-64
2022/01/04 04:20:21;;;;;;;76.07;5.93;;;;;;;7.48;100.00;96619.72;5078777;28;20613;-64
2022/01/04 04:22:48;;;;;;;79.97;5.67;;;;;;;7.53;100.00;96614.38;5080274;28;20618;-64
2022/01/04 04:25:15;;;;;;;49.47;4.90;;;;;;;7.69;100.00;96611.59;5077050;28;20636;-63
2022/01/04 04:27:42;;;;;;;69.47;6.07;;;;;;;7.70;100.00;96602.56;5077146;28;20618;-64
2022/01/04 04:30:10;;;;;;;33.00;4.20;;;;;;;7.72;100.00;96600.44;5077347;28;20611;-64
2022/01/04 04:32:36;;;;;;;50.73;4.77;;;;;;;7.64;100.00;96591.19;5080614;28;20601;-64
2022/01/04 04:35:05;;;;;;;37.53;4.87;;;;;;;7.60;100.00;96590.94;5080567;28;20649;-64
2022/01/04 04:37:32;;;;;;;100.97;8.17;;;;;;;7.72;100.00;96593.25;5068814;28;20656;-64
2022/01/04 04:39:58;;;;;;;77.50;6.47;;;;;;;7.74;100.00;96592.97;5077100;28;20599;-64
2022/01/04 04:42:25;;;;;;;48.30;5.53;;;;;;;7.69;100.00;96598.31;5079593;28;20602;-64
2022/01/04 04:44:52;;;;;;;65.33;5.30;;;;;;;7.72;100.00;96595.13;5080222;28;20633;-64
2022/01/04 04:47:18;;;;;;;38.07;4.70;;;;;;;7.63;100.00;96591.47;5078659;28;20602;-64
2022/01/04 04:49:45;;;;;;;73.40;6.63;;;;;;;7.71;100.00;96580.22;5077142;28;20594;-64
2022/01/04 04:52:13;;;;;;;40.13;4.13;;;;;;;7.71;100.00;96580.22;5077401;28;20611;-64
2022/01/04 04:54:39;;;;;;;53.73;5.33;;;;;;;7.67;100.00;96574.69;5075854;28;20644;-64
2022/01/04 04:57:06;;;;;;;44.40;5.20;;;;;;;7.72;100.00;96573.84;5080520;28;20605;-65
2022/01/04 04:59:33;;;;;;;77.60;6.53;;;;;;;7.71;100.00;96566.94;5068946;28;20602;-65
2022/01/04 05:01:59;;;;;;;60.63;4.87;;;;;;;7.71;100.00;96564.28;5076710;28;20610;-65
2022/01/04 05:04:26;;;;;;;57.70;5.70;;;;;;;7.70;100.00;96573.34;5079556;28;20666;-64
2022/01/04 05:06:53;;;;;;;82.50;6.87;;;;;;;7.68;100.00;96557.66;5080306;28;20612;-64
2022/01/04 05:09:21;;;;;;;65.13;5.83;;;;;;;7.68;100.00;96551.56;5078262;28;20601;-64
2022/01/04 05:11:48;;;;;;;51.67;5.60;;;;;;;7.53;100.00;96545.28;5076921;28;20638;-65
2022/01/04 05:14:14;;;;;;;45.57;5.10;;;;;;;7.56;100.00;96539.44;5077679;28;20624;-65
2022/01/04 05:16:41;;;;;;;52.13;5.50;;;;;;;7.49;100.00;96538.94;5080235;28;20601;-64
2022/01/04 05:19:08;;;;;;;53.80;5.33;;;;;;;7.56;100.00;96538.63;5079897;28;20610;-64
2022/01/04 05:21:34;;;;;;;113.20;8.67;;;;;;;7.51;100.00;96530.72;5076624;28;20637;-64
2022/01/04 05:24:01;;;;;;;68.87;6.77;;;;;;;7.47;100.00;96527.81;5075480;28;20614;-64
2022/01/04 05:26:29;;;;;;;102.07;8.03;;;;;;;7.56;100.00;96530.66;5083262;28;20601;-65
2022/01/04 05:28:55;;;;;;;48.33;5.43;;;;;;;7.46;100.00;96523.56;5083620;28;20598;-64
2022/01/04 05:31:22;;;;;;;58.20;5.77;;;;;;;7.57;100.00;96519.78;5081415;28;20598;-63
2022/01/04 05:33:49;;;;;;;63.47;6.00;;;;;;;7.49;100.00;96512.38;5080040;28;20602;-65
2022/01/04 05:36:15;;;;;;;44.57;6.23;;;;;;;7.51;100.00;96520.88;5081004;28;20650;-64
2022/01/04 05:38:43;;;;;;;78.90;7.57;;;;;;;7.63;100.00;96515.22;5083464;28;20617;-64
2022/01/04 05:41:09;;;;;;;53.17;5.30;;;;;;;7.57;100.00;96501.19;5082866;28;20645;-64
2022/01/04 05:43:37;;;;;;;56.50;6.07;;;;;;;7.63;100.00;96501.13;5079923;28;20602;-64
2022/01/04 05:46:04;;;;;;;55.87;5.80;;;;;;;7.64;100.00;96503.53;5079551;28;20625;-64
2022/01/04 05:48:30;;;;;;;68.63;6.03;;;;;;;7.63;100.00;96493.97;5082980;28;21050;-64
2022/01/04 05:50:57;;;;;;;39.70;5.07;;;;;;;7.70;100.00;96490.97;5083356;28;20624;-64
2022/01/04 05:53:24;;;;;;;52.63;5.87;;;;;;;7.65;100.00;96485.69;5076167;28;20594;-64
2022/01/04 05:55:50;;;;;;;82.77;6.43;;;;;;;7.64;100.00;96489.44;5079543;28;20672;-64
2022/01/04 05:58:17;;;;;;;49.33;5.77;;;;;;;7.58;100.00;96473.53;5080903;28;20648;-64
2022/01/04 06:00:45;;;;;;;89.87;7.47;;;;;;;7.54;100.00;96477.81;5082881;28;20612;-64
2022/01/04 06:03:12;;;;;;;87.40;7.37;;;;;;;7.44;100.00;96472.59;5082103;28;20636;-64
2022/01/04 06:05:38;;;;;;;87.57;8.40;;;;;;;7.40;100.00;96466.25;5079489;28;20598;-64
2022/01/04 06:08:05;;;;;;;60.83;6.17;;;;;;;7.46;100.00;96472.28;5079341;28;20591;-64
2022/01/04 06:10:38;;;;;;;36.60;5.47;;;;;;;7.49;100.00;96467.22;5071222;28;20736;-63
2022/01/04 06:15:50;;;;;;;42.77;5.33;;;;;;;7.56;100.00;96464.25;5073499;28;20714;-64
2022/01/04 06:18:16;;;;;;;40.50;6.03;;;;;;;7.58;100.00;96462.91;5080441;28;20674;-65
2022/01/04 06:20:44;;;;;;;66.20;6.80;;;;;;;7.56;100.00;96464.25;5082761;28;20606;-64
2022/01/04 06:23:11;;;;;;;39.73;5.60;;;;;;;7.56;100.00;96465.06;5077284;28;20598;-65
2022/01/04 06:25:38;;;;;;;89.87;7.73;;;;;;;7.52;100.00;96448.06;5079102;28;20594;-64
2022/01/04 06:28:05;;;;;;;67.10;5.83;;;;;;;7.48;100.00;96448.94;5078974;28;20852;-64
2022/01/04 06:30:31;;;;;;;32.13;4.33;;;;;;;7.55;100.00;96452.84;5082394;28;20586;-64
2022/01/04 06:32:59;;;;;;;54.73;5.80;;;;;;;7.56;100.00;96446.47;5082068;28;20610;-64
2022/01/04 06:35:27;;;;;;;70.33;6.87;;;;;;;7.60;100.00;96436.88;5079609;28;20637;-64
2022/01/04 06:37:54;;;;;;;37.27;4.47;;;;;;;7.66;100.00;96442.94;5078908;28;20657;-65
2022/01/04 06:40:20;;;;;;;68.13;6.90;;;;;;;7.71;100.00;96448.19;5080783;28;20610;-65
2022/01/04 06:42:47;;;;;;;89.30;6.80;;;;;;;7.72;100.00;96441.00;5082397;28;20639;-65
2022/01/04 06:45:14;;;;;;;100.40;7.97;;;;;;;7.77;100.00;96427.69;5080815;28;20644;-65
2022/01/04 06:47:41;;;;;;;76.40;6.37;;;;;;;7.67;100.00;96420.59;5078682;28;20610;-64
2022/01/04 06:50:12;;;;;;;67.07;5.93;;;;;;;7.74;100.00;96422.91;5078629;28;20630;-64
2022/01/04 06:52:38;;;;;;;42.63;4.17;;;;;;;7.77;100.00;96417.06;5081242;28;20633;-63
2022/01/04 06:55:06;;;;;;;63.33;5.27;;;;;;;7.72;100.00;96419.75;5078209;28;20674;-64
2022/01/04 06:57:33;;;;;;;133.33;9.27;;;;;;;7.67;100.00;96423.25;5070345;28;20607;-64
2022/01/04 06:59:59;;;;;;;75.47;5.97;;;;;;;7.77;100.00;96423.16;5078431;28;20607;-64
2022/01/04 07:02:26;;;;;;;28.17;3.67;;;;;;;7.87;100.00;96422.25;5081023;28;20656;-64
2022/01/04 07:04:53;;;;;;;133.60;9.43;;;;;;;7.92;100.00;96419.56;5081785;28;20616;-64
2022/01/04 07:07:21;;;;;;;55.13;5.23;;;;;;;7.78;100.00;96418.63;5079865;28;20594;-64
2022/01/04 07:09:47;;;;;;;48.23;4.70;;;;;;;7.87;100.00;96411.63;5078205;28;20607;-65
2022/01/04 07:12:14;;;;;;;75.00;5.80;;;;;;;7.85;100.00;96414.56;5079111;28;20602;-65
2022/01/04 07:14:40;;;;;;;74.90;5.40;;;;;;;7.90;100.00;96403.09;5081571;28;20737;-64
2022/01/04 07:17:07;;;;;;;73.33;5.70;;;;;;;7.84;100.00;96406.88;5081387;28;20605;-64
2022/01/04 07:19:33;;;;;;;55.17;5.10;;;;;;;7.89;100.00;96409.50;5077758;28;20598;-65
2022/01/04 07:22:00;;;;;;;49.60;5.10;;;;;;;7.92;100.00;96400.97;5077868;28;20618;-64
2022/01/04 07:24:28;;;;;;;52.17;5.57;;;;;;;7.84;100.00;96390.94;5076305;28;20617;-65
2022/01/04 07:26:55;;;;;;;106.03;7.67;;;;;;;7.93;100.00;96389.22;5081494;28;20615;-64
2022/01/04 07:29:21;;;;;;;69.93;5.87;;;;;;;7.93;100.00;96383.91;5079204;28;20609;-64
2022/01/04 07:31:48;;;;;;;61.40;5.67;;;;;;;7.98;100.00;96375.91;5077779;28;20611;-65
2022/01/04 07:34:15;;;;;;;65.03;5.87;;;;;;;7.92;100.00;96382.34;5078826;28;20629;-64
2022/01/04 07:36:41;;;;;;;67.07;4.67;;;;;;;7.89;100.00;96382.91;5080116;28;20676;-64
2022/01/04 07:39:08;;;;;;;35.57;3.70;;;;;;;7.92;100.00;96374.38;5080997;28;20606;-64
2022/01/04 07:41:36;;;;;;;127.83;7.90;;;;;;;7.87;100.00;96369.91;5077661;28;20594;-65
2022/01/04 07:44:03;;;;;;;41.40;4.50;;;;;;;7.83;100.00;96358.25;5077174;28;20660;-65
2022/01/04 07:46:29;;;;;;;66.00;4.70;;;;;;;7.97;100.00;96356.50;5079970;28;20593;-64
2022/01/04 07:48:56;;;;;;;56.77;4.53;;;;;;;7.97;100.00;96353.03;5081123;28;20601;-65
2022/01/04 07:51:22;;;;;;;56.47;4.30;;;;;;;8.04;100.00;96343.66;5078835;28;20602;-64
2022/01/04 07:53:49;;;;;;;44.77;3.47;;;;;;;8.07;100.00;96342.31;5072976;28;20614;-64
2022/01/04 07:56:15;;;;;;;38.60;3.60;;;;;;;8.08;100.00;96341.19;5078638;28;20638;-65
2022/01/04 07:58:43;;;;;;;42.17;3.10;;;;;;;8.12;100.00;96342.22;5081058;28;20663;-64
2022/01/04 08:01:10;;;;;;;52.40;3.90;;;;;;;8.15;100.00;96336.34;5080650;28;20639;-64
2022/01/04 08:03:37;;;;;;;59.83;5.23;;;;;;;8.21;100.00;96331.75;5077445;28;20615;-64
2022/01/04 08:06:03;;;;;;;87.53;6.30;;;;;;;8.09;100.00;96332.16;5077500;28;20610;-64
2022/01/04 08:08:30;;;;;;;40.43;4.57;;;;;;;8.13;100.00;96325.22;5080934;28;20620;-65
2022/01/04 08:10:56;;;;;;;57.40;4.73;;;;;;;8.19;100.00;96321.41;5081093;28;21045;-64
2022/01/04 08:13:27;;;;;;;47.77;4.30;;;;;;;8.26;100.00;96319.19;5078528;28;20614;-64
2022/01/04 08:15:55;;;;;;;28.80;4.87;;;;;;;8.29;100.00;96307.22;5077233;28;20650;-64
2022/01/04 08:18:21;;;;;;;42.70;3.90;;;;;;;8.29;100.00;96317.84;5079412;28;20626;-65
2022/01/04 08:20:50;;;;;;;95.70;6.60;;;;;;;8.27;100.00;96318.09;5080799;28;20598;-64
2022/01/04 08:23:16;;;;;;;32.70;3.13;;;;;;;8.25;100.00;96309.63;5074625;28;20825;-64
2022/01/04 08:25:43;;;;;;;93.60;6.20;;;;;;;8.31;100.00;96311.16;5077221;28;20606;-64
2022/01/04 08:28:10;;;;;;;39.53;3.77;;;;;;;8.40;100.00;96301.47;5077432;28;20603;-64
2022/01/04 08:30:36;;;;;;;55.60;4.13;;;;;;;8.37;100.00;96312.69;5080760;28;20605;-64
2022/01/04 08:33:04;;;;;;;56.43;3.20;;;;;;;8.36;100.00;96305.75;5080644;28;20659;-64
2022/01/04 08:35:31;;;;;;;84.50;5.10;;;;;;;8.36;100.00;96302.31;5077190;28;20664;-64
2022/01/04 08:37:58;;;;;;;31.07;2.30;;;;;;;8.40;100.00;96300.66;5077168;28;20614;-64
2022/01/04 08:40:25;;;;;;;49.87;2.93;;;;;;;8.41;100.00;96289.75;5079495;28;20609;-65
2022/01/04 08:42:51;;;;;;;59.87;3.67;;;;;;;8.42;100.00;96279.88;5080639;28;20602;-64
2022/01/04 08:45:20;;;;;;;27.60;2.17;;;;;;;8.53;100.00;96279.47;5078664;28;20655;-65
2022/01/04 08:47:49;;;;;;;51.30;3.03;;;;;;;8.47;100.00;96275.31;5076984;28;20622;-64
2022/01/04 08:50:17;;;;;;;40.70;3.47;;;;;;;8.50;100.00;96276.59;5078049;28;20610;-64
2022/01/04 08:52:44;;;;;;;51.07;3.10;;;;;;;8.49;100.00;96269.69;5079113;28;20606;-65
2022/01/04 08:55:12;;;;;;;37.43;3.00;;;;;;;8.58;100.00;96259.97;5076944;28;20608;-64
2022/01/04 08:57:39;;;;;;;61.03;5.90;;;;;;;8.56;100.00;96257.59;5080212;28;20606;-64
2022/01/04 09:00:08;;;;;;;56.90;8.20;;;;;;;8.62;100.00;96261.75;5080703;28;20622;-64
2022/01/04 09:02:35;;;;;;;78.97;9.20;;;;;;;8.65;100.00;96258.53;5072984;28;20660;-63
2022/01/04 09:05:02;;;;;;;105.43;9.17;;;;;;;8.62;100.00;96248.47;5080534;28;20675;-64
2022/01/04 09:07:31;;;;;;;74.10;5.37;;;;;;;8.63;100.00;96255.34;5083865;28;20593;-65
2022/01/04 09:09:57;;;;;;;67.53;4.07;;;;;;;8.57;100.00;96229.91;5084108;28;20616;-64
2022/01/04 09:12:28;;;;;;;43.93;3.00;;;;;;;8.62;100.00;96226.38;5081671;28;20605;-64
2022/01/04 09:14:58;;;;;;;55.67;3.77;;;;;;;8.77;100.00;96241.28;5080147;28;20601;-65
2022/01/04 09:20:13;;;;;;;63.57;4.37;;;;;;;8.66;100.00;96228.16;5083493;28;20589;-64
2022/01/04 09:22:42;;;;;;;35.27;2.60;;;;;;;8.68;100.00;96231.34;5083377;28;20600;-64
2022/01/04 09:25:10;;;;;;;36.67;3.37;;;;;;;8.68;100.00;96231.34;5080527;28;20595;-64
2022/01/04 09:27:37;;;;;;;90.67;5.90;;;;;;;8.61;100.00;96225.59;5080479;28;20594;-65
2022/01/04 09:30:06;;;;;;;86.80;5.83;;;;;;;8.69;100.00;96224.13;5080159;28;20621;-65
2022/01/04 09:32:35;;;;;;;46.97;4.00;;;;;;;8.58;100.00;96218.19;5080381;28;20609;-64
2022/01/04 09:35:04;;;;;;;33.80;3.10;;;;;;;8.59;100.00;96217.09;5080239;28;20665;-64
2022/01/04 09:37:31;;;;;;;76.20;4.93;;;;;;;8.61;100.00;96225.59;5083339;28;20691;-65
2022/01/04 09:39:59;;;;;;;47.23;3.43;;;;;;;8.58;100.00;96209.41;5083785;28;20681;-64
2022/01/04 09:42:25;;;;;;;38.83;3.93;;;;;;;8.60;100.00;96201.94;5080896;28;20598;-64
2022/01/04 09:44:52;;;;;;;57.43;3.80;;;;;;;8.61;100.00;96214.94;5079845;28;20653;-64
2022/01/04 09:47:19;;;;;;;33.07;3.37;;;;;;;8.70;100.00;96208.97;5081505;28;20595;-65
2022/01/04 09:49:45;;;;;;;45.67;3.33;;;;;;;8.57;100.00;96202.53;5083632;28;20628;-64
2022/01/04 09:52:15;;;;;;;33.43;3.77;;;;;;;8.63;100.00;96193.38;5082659;28;20613;-64
2022/01/04 09:54:42;;;;;;;62.03;4.30;;;;;;;8.61;100.00;96193.66;5078848;28;20633;-63
2022/01/04 09:57:10;;;;;;;77.33;5.43;;;;;;;8.58;100.00;96185.47;5082988;28;20637;-63
2022/01/04 09:59:37;;;;;;;73.47;5.07;;;;;;;8.65;100.00;96184.00;5079831;28;20685;-64
2022/01/04 10:02:14;;;;;;;40.67;3.40;;;;;;;8.65;100.00;96173.38;5079747;28;20637;-63
2022/01/04 10:04:41;;;;;;;87.73;5.53;;;;;;;8.61;100.00;96177.69;5072670;28;20602;-64
2022/01/04 10:07:09;;;;;;;29.23;3.10;;;;;;;8.72;100.00;96164.22;5079514;28;20618;-65
2022/01/04 10:09:44;;;;;;;110.63;6.50;;;;;;;8.67;100.00;96157.91;5082465;28;20646;-64
2022/01/04 10:12:14;;;;;;;38.83;4.10;;;;;;;8.68;100.00;96148.84;5082277;28;20605;-64
2022/01/04 10:14:43;;;;;;;54.97;4.47;;;;;;;8.73;100.00;96147.94;5079587;28;20617;-64
2022/01/04 10:17:13;;;;;;;21.93;2.70;;;;;;;8.68;100.00;96143.53;5079675;28;20641;-65
2022/01/04 10:19:42;;;;;;;54.33;4.77;;;;;;;8.66;100.00;96143.00;5083026;28;20609;-65
2022/01/04 10:22:22;;;;;;;45.50;4.70;;;;;;;8.78;100.00;96131.09;5082112;28;20643;-64
2022/01/04 10:24:51;;;;;;;82.97;5.70;;;;;;;8.78;100.00;96131.09;5078324;28;20611;-65
2022/01/04 10:27:28;;;;;;;42.37;4.63;;;;;;;8.82;100.00;96130.22;5081221;28;20723;-64
2022/01/04 10:30:20;;;;;;;75.63;5.33;;;;;;;8.83;100.00;96125.69;5079344;28;20628;-66
2022/01/04 10:32:51;;;;;;;60.43;4.33;;;;;;;8.82;100.00;96124.13;5073180;28;20640;-65
2022/01/04 10:35:43;;;;;;;59.17;4.40;;;;;;;8.87;100.00;96108.84;5080632;28;20667;-64
2022/01/04 10:38:13;;;;;;;38.40;4.40;;;;;;;8.84;100.00;96105.97;5082239;28;20620;-65
2022/01/04 10:40:41;;;;;;;75.27;5.60;;;;;;;8.75;100.00;96097.91;5079028;28;20628;-64
2022/01/04 10:43:13;;;;;;;25.20;3.83;;;;;;;8.73;100.00;96088.63;5078907;28;20618;-64
2022/01/04 10:45:41;;;;;;;63.10;5.00;;;;;;;8.70;100.00;96090.00;5082408;28;20686;-64
2022/01/04 10:48:13;;;;;;;64.77;5.53;;;;;;;8.74;100.00;96084.88;5082384;28;20667;-64
2022/01/04 10:50:41;;;;;;;35.80;4.10;;;;;;;8.80;100.00;96083.69;5079025;28;20608;-64
2022/01/04 10:53:16;;;;;;;51.43;4.60;;;;;;;8.80;100.00;96078.38;5081748;28;20607;-64
2022/01/04 10:55:44;;;;;;;49.03;4.33;;;;;;;8.70;100.00;96073.25;5078751;28;20637;-64
2022/01/04 10:58:21;;;;;;;28.97;3.53;;;;;;;8.77;100.00;96076.28;5079117;28;20657;-65
2022/01/04 11:00:51;;;;;;;69.90;5.80;;;;;;;8.87;100.00;96073.44;5082053;28;20686;-64
2022/01/04 11:03:27;;;;;;;32.33;4.50;;;;;;;8.88;100.00;96069.72;5080367;28;20586;-64
2022/01/04 11:05:55;;;;;;;49.33;4.97;;;;;;;8.87;100.00;96060.13;5078556;28;20630;-65
2022/01/04 11:08:22;;;;;;;54.80;5.63;;;;;;;8.88;100.00;96056.41;5080352;28;20622;-64
2022/01/04 11:10:50;;;;;;;91.53;6.87;;;;;;;8.87;100.00;96052.16;5082042;28;20601;-65
2022/01/04 11:13:18;;;;;;;62.10;5.47;;;;;;;8.82;100.00;96053.03;5079168;28;21027;-64
2022/01/04 11:15:44;;;;;;;63.33;5.57;;;;;;;8.82;100.00;96054.94;5078338;28;20611;-64
2022/01/04 11:18:12;;;;;;;51.27;5.57;;;;;;;8.89;100.00;96049.97;5078573;28;20650;-64
2022/01/04 11:20:41;;;;;;;43.60;3.67;;;;;;;8.89;100.00;96037.47;5081707;28;20620;-64
2022/01/04 11:23:08;;;;;;;29.20;4.03;;;;;;;8.89;100.00;96031.34;5076923;28;20703;-65
2022/01/04 11:25:35;;;;;;;89.47;6.33;;;;;;;8.96;100.00;96026.41;5077160;28;20598;-64
2022/01/04 11:28:03;;;;;;;35.50;4.30;;;;;;;9.03;100.00;96027.59;5078179;28;20631;-65
2022/01/04 11:30:46;;;;;;;53.73;5.07;;;;;;;9.12;100.00;96017.03;5081212;28;20593;-65
2022/01/04 11:33:26;;;;;;;51.83;5.10;;;;;;;9.06;100.00;96005.69;5080720;28;20638;-64
2022/01/04 11:35:54;;;;;;;54.47;5.63;;;;;;;9.11;100.00;96002.91;5078010;28;20641;-65
2022/01/04 11:38:35;;;;;;;42.13;3.90;;;;;;;9.14;100.00;95993.53;5079372;28;20649;-64